sensor_id;sensor_type;location;lat;lon;timestamp;P1;P2;P0
67714;PMS7003;54505;44.022;20.458;2022-12-20T00:01:20;134.25;115.75;67.75
67714;PMS7003;54505;44.022;20.458;2022-12-20T00:03:47;124.50;118.25;71.00
67714;PMS7003;54505;44.022;20.458;2022-12-20T00:06:14;133.50;114.50;69.00
67714;PMS7003;54505;44.022;20.458;2022-12-20T00:08:40;174.75;145.00;85.00
67714;PMS7003;54505;44.022;20.458;2022-12-20T00:11:06;173.25;143.50;80.25
67714;PMS7003;54505;44.022;20.458;2022-12-20T00:13:32;145.00;115.50;73.00
67714;PMS7003;54505;44.022;20.458;2022-12-20T00:18:34;193.00;160.75;92.75
67714;PMS7003;54505;44.022;20.458;2022-12-20T00:21:00;183.75;153.25;85.00
67714;PMS7003;54505;44.022;20.458;2022-12-20T00:23:26;157.50;133.00;74.75
67714;PMS7003;54505;44.022;20.458;2022-12-20T00:26:28;121.75;105.50;60.00
67714;PMS7003;54505;44.022;20.458;2022-12-20T00:28:46;112.75;79.00;51.00
67714;PMS7003;54505;44.022;20.458;2022-12-20T00:31:12;118.00;89.75;52.00
67714;PMS7003;54505;44.022;20.458;2022-12-20T00:33:39;121.25;104.25;60.75
67714;PMS7003;54505;44.022;20.458;2022-12-20T00:36:05;118.50;88.25;55.25
67714;PMS7003;54505;44.022;20.458;2022-12-20T00:38:31;147.50;120.75;72.75
67714;PMS7003;54505;44.022;20.458;2022-12-20T00:41:04;142.00;117.50;71.50
67714;PMS7003;54505;44.022;20.458;2022-12-20T00:43:30;117.75;97.50;57.00
67714;PMS7003;54505;44.022;20.458;2022-12-20T00:45:56;115.75;98.50;57.25
67714;PMS7003;54505;44.022;20.458;2022-12-20T00:48:22;113.00;86.00;52.00
67714;PMS7003;54505;44.022;20.458;2022-12-20T00:50:48;101.00;73.25;46.00
67714;PMS7003;54505;44.022;20.458;2022-12-20T00:53:14;88.00;66.50;43.00
67714;PMS7003;54505;44.022;20.458;2022-12-20T00:55:40;85.00;66.00;42.00
67714;PMS7003;54505;44.022;20.458;2022-12-20T00:58:06;106.00;76.00;51.00
67714;PMS7003;54505;44.022;20.458;2022-12-20T01:00:32;101.00;76.00;48.50
67714;PMS7003;54505;44.022;20.458;2022-12-20T01:02:58;86.75;68.50;42.00
67714;PMS7003;54505;44.022;20.458;2022-12-20T01:05:23;65.25;53.50;33.00
67714;PMS7003;54505;44.022;20.458;2022-12-20T01:07:49;69.00;49.00;33.00
67714;PMS7003;54505;44.022;20.458;2022-12-20T01:10:15;90.25;67.50;42.50
67714;PMS7003;54505;44.022;20.458;2022-12-20T01:12:40;74.00;57.25;33.75
67714;PMS7003;54505;44.022;20.458;2022-12-20T01:15:06;71.50;53.25;33.25
67714;PMS7003;54505;44.022;20.458;2022-12-20T01:17:32;84.25;64.50;40.00
67714;PMS7003;54505;44.022;20.458;2022-12-20T01:19:58;81.25;63.75;40.00
67714;PMS7003;54505;44.022;20.458;2022-12-20T01:22:23;61.25;46.75;33.00
67714;PMS7003;54505;44.022;20.458;2022-12-20T01:24:49;68.00;47.25;32.00
67714;PMS7003;54505;44.022;20.458;2022-12-20T01:27:14;81.75;62.25;37.00
67714;PMS7003;54505;44.022;20.458;2022-12-20T01:29:40;90.75;68.00;43.25
67714;PMS7003;54505;44.022;20.458;2022-12-20T01:32:06;83.00;60.50;39.00
67714;PMS7003;54505;44.022;20.458;2022-12-20T01:34:31;66.75;51.50;32.25
67714;PMS7003;54505;44.022;20.458;2022-12-20T01:36:57;61.75;48.75;30.00
67714;PMS7003;54505;44.022;20.458;2022-12-20T01:39:23;57.00;38.50;27.50
67714;PMS7003;54505;44.022;20.458;2022-12-20T01:41:48;65.50;50.75;30.25
67714;PMS7003;54505;44.022;20.458;2022-12-20T01:44:59;68.25;53.75;33.50
67714;PMS7003;54505;44.022;20.458;2022-12-20T01:47:00;53.75;42.50;26.25
67714;PMS7003;54505;44.022;20.458;2022-12-20T01:49:30;58.00;47.50;29.50
67714;PMS7003;54505;44.022;20.458;2022-12-20T01:51:58;72.00;57.25;34.50
67714;PMS7003;54505;44.022;20.458;2022-12-20T01:54:27;71.00;49.50;30.00
67714;PMS7003;54505;44.022;20.458;2022-12-20T01:57:01;78.00;56.00;34.00
67714;PMS7003;54505;44.022;20.458;2022-12-20T01:59:28;47.00;43.00;24.75
67714;PMS7003;54505;44.022;20.458;2022-12-20T02:01:55;52.00;44.00;28.50
67714;PMS7003;54505;44.022;20.458;2022-12-20T02:04:22;73.50;56.75;36.00
67714;PMS7003;54505;44.022;20.458;2022-12-20T02:06:48;75.25;57.75;38.25
67714;PMS7003;54505;44.022;20.458;2022-12-20T02:09:14;58.00;40.75;24.50
67714;PMS7003;54505;44.022;20.458;2022-12-20T02:16:57;65.25;44.50;27.75
67714;PMS7003;54505;44.022;20.458;2022-12-20T02:25:12;57.25;44.50;25.75
67714;PMS7003;54505;44.022;20.458;2022-12-20T02:32:29;57.50;48.00;30.75
67714;PMS7003;54505;44.022;20.458;2022-12-20T02:34:56;58.25;41.00;23.50
67714;PMS7003;54505;44.022;20.458;2022-12-20T02:37:22;48.75;43.00;26.50
67714;PMS7003;54505;44.022;20.458;2022-12-20T02:39:47;58.00;39.50;27.00
67714;PMS7003;54505;44.022;20.458;2022-12-20T02:42:17;45.00;36.50;23.75
67714;PMS7003;54505;44.022;20.458;2022-12-20T02:44:48;54.25;45.00;26.00
67714;PMS7003;54505;44.022;20.458;2022-12-20T02:47:56;55.25;42.00;27.25
67714;PMS7003;54505;44.022;20.458;2022-12-20T02:50:22;44.00;39.50;26.00
67714;PMS7003;54505;44.022;20.458;2022-12-20T02:52:50;51.00;39.00;21.25
67714;PMS7003;54505;44.022;20.458;2022-12-20T02:55:16;41.75;33.25;19.50
67714;PMS7003;54505;44.022;20.458;2022-12-20T02:57:44;45.50;37.50;21.75
67714;PMS7003;54505;44.022;20.458;2022-12-20T03:00:17;43.25;39.75;25.25
67714;PMS7003;54505;44.022;20.458;2022-12-20T03:02:43;50.00;36.75;24.00
67714;PMS7003;54505;44.022;20.458;2022-12-20T03:05:31;59.75;46.75;26.50
67714;PMS7003;54505;44.022;20.458;2022-12-20T03:07:58;47.75;38.25;22.50
67714;PMS7003;54505;44.022;20.458;2022-12-20T03:10:25;43.00;30.75;21.75
67714;PMS7003;54505;44.022;20.458;2022-12-20T03:12:51;49.50;35.50;21.75
67714;PMS7003;54505;44.022;20.458;2022-12-20T03:15:17;38.00;31.75;21.00
67714;PMS7003;54505;44.022;20.458;2022-12-20T03:17:42;44.75;36.25;23.00
67714;PMS7003;54505;44.022;20.458;2022-12-20T03:20:08;50.50;38.75;22.00
67714;PMS7003;54505;44.022;20.458;2022-12-20T03:22:35;53.50;43.25;25.50
67714;PMS7003;54505;44.022;20.458;2022-12-20T03:25:01;45.25;35.00;22.25
67714;PMS7003;54505;44.022;20.458;2022-12-20T03:27:27;51.50;39.25;28.75
67714;PMS7003;54505;44.022;20.458;2022-12-20T03:29:53;47.50;38.00;21.00
67714;PMS7003;54505;44.022;20.458;2022-12-20T03:32:19;35.25;28.75;19.50
67714;PMS7003;54505;44.022;20.458;2022-12-20T03:34:45;37.25;31.75;19.50
67714;PMS7003;54505;44.022;20.458;2022-12-20T03:37:10;50.50;42.00;26.00
67714;PMS7003;54505;44.022;20.458;2022-12-20T03:39:36;38.25;34.50;24.00
67714;PMS7003;54505;44.022;20.458;2022-12-20T03:42:02;50.50;43.00;24.75
67714;PMS7003;54505;44.022;20.458;2022-12-20T03:44:28;47.75;39.00;23.50
67714;PMS7003;54505;44.022;20.458;2022-12-20T03:46:53;42.75;35.25;20.00
67714;PMS7003;54505;44.022;20.458;2022-12-20T03:49:19;50.25;38.00;24.00
67714;PMS7003;54505;44.022;20.458;2022-12-20T03:51:44;42.25;36.50;22.00
67714;PMS7003;54505;44.022;20.458;2022-12-20T03:54:10;35.25;28.50;17.00
67714;PMS7003;54505;44.022;20.458;2022-12-20T03:56:36;43.50;36.50;25.00
67714;PMS7003;54505;44.022;20.458;2022-12-20T03:59:02;56.00;37.25;26.00
67714;PMS7003;54505;44.022;20.458;2022-12-20T04:01:27;52.25;42.75;26.75
67714;PMS7003;54505;44.022;20.458;2022-12-20T04:03:54;49.50;39.25;24.25
67714;PMS7003;54505;44.022;20.458;2022-12-20T04:06:19;59.75;45.25;28.50
67714;PMS7003;54505;44.022;20.458;2022-12-20T04:08:46;46.75;43.75;27.75
67714;PMS7003;54505;44.022;20.458;2022-12-20T04:11:12;52.75;40.00;27.00
67714;PMS7003;54505;44.022;20.458;2022-12-20T04:13:50;48.00;40.00;27.25
67714;PMS7003;54505;44.022;20.458;2022-12-20T04:16:17;67.75;48.25;31.50
67714;PMS7003;54505;44.022;20.458;2022-12-20T04:18:43;61.00;47.25;28.50
67714;PMS7003;54505;44.022;20.458;2022-12-20T04:21:09;68.00;50.00;27.50
67714;PMS7003;54505;44.022;20.458;2022-12-20T04:23:36;72.00;51.75;31.25
67714;PMS7003;54505;44.022;20.458;2022-12-20T04:26:02;55.00;41.25;21.75
67714;PMS7003;54505;44.022;20.458;2022-12-20T04:28:28;73.00;49.50;30.00
67714;PMS7003;54505;44.022;20.458;2022-12-20T04:30:54;52.75;43.00;25.00
67714;PMS7003;54505;44.022;20.458;2022-12-20T04:33:20;42.25;32.75;20.00
67714;PMS7003;54505;44.022;20.458;2022-12-20T04:35:46;46.25;33.50;18.00
67714;PMS7003;54505;44.022;20.458;2022-12-20T04:38:12;41.25;38.25;27.00
67714;PMS7003;54505;44.022;20.458;2022-12-20T04:40:37;54.25;43.50;29.50
67714;PMS7003;54505;44.022;20.458;2022-12-20T04:43:03;50.25;36.00;25.25
67714;PMS7003;54505;44.022;20.458;2022-12-20T04:45:28;37.25;29.50;15.25
67714;PMS7003;54505;44.022;20.458;2022-12-20T04:47:54;48.50;38.75;25.75
67714;PMS7003;54505;44.022;20.458;2022-12-20T04:50:20;59.75;48.25;29.00
67714;PMS7003;54505;44.022;20.458;2022-12-20T04:52:46;53.00;45.00;27.00
67714;PMS7003;54505;44.022;20.458;2022-12-20T04:55:30;47.75;38.75;28.00
67714;PMS7003;54505;44.022;20.458;2022-12-20T04:57:56;78.50;61.25;39.00
67714;PMS7003;54505;44.022;20.458;2022-12-20T05:00:21;51.50;38.75;28.75
67714;PMS7003;54505;44.022;20.458;2022-12-20T05:02:47;58.75;45.25;30.00
67714;PMS7003;54505;44.022;20.458;2022-12-20T05:05:13;50.50;43.75;25.50
67714;PMS7003;54505;44.022;20.458;2022-12-20T05:07:39;46.25;39.75;27.75
67714;PMS7003;54505;44.022;20.458;2022-12-20T05:10:05;45.25;34.00;18.00
67714;PMS7003;54505;44.022;20.458;2022-12-20T05:12:31;76.25;51.75;33.00
67714;PMS7003;54505;44.022;20.458;2022-12-20T05:14:56;66.75;51.75;33.00
67714;PMS7003;54505;44.022;20.458;2022-12-20T05:17:22;66.25;49.00;30.00
67714;PMS7003;54505;44.022;20.458;2022-12-20T05:19:47;68.50;52.00;34.00
67714;PMS7003;54505;44.022;20.458;2022-12-20T05:22:13;66.00;51.00;34.00
67714;PMS7003;54505;44.022;20.458;2022-12-20T05:24:57;66.75;52.50;33.50
67714;PMS7003;54505;44.022;20.458;2022-12-20T05:27:41;66.75;47.50;32.00
67714;PMS7003;54505;44.022;20.458;2022-12-20T05:30:07;68.50;52.25;33.00
67714;PMS7003;54505;44.022;20.458;2022-12-20T05:32:33;74.75;59.75;39.00
67714;PMS7003;54505;44.022;20.458;2022-12-20T05:34:59;68.00;52.00;34.00
67714;PMS7003;54505;44.022;20.458;2022-12-20T05:37:24;72.75;52.00;34.00
67714;PMS7003;54505;44.022;20.458;2022-12-20T05:39:50;64.25;53.75;35.50
67714;PMS7003;54505;44.022;20.458;2022-12-20T05:42:16;71.50;58.75;36.00
67714;PMS7003;54505;44.022;20.458;2022-12-20T05:44:42;63.75;49.50;35.00
67714;PMS7003;54505;44.022;20.458;2022-12-20T05:47:08;55.50;47.50;29.00
67714;PMS7003;54505;44.022;20.458;2022-12-20T05:49:33;55.25;45.25;33.00
67714;PMS7003;54505;44.022;20.458;2022-12-20T05:52:00;85.75;64.50;42.25
67714;PMS7003;54505;44.022;20.458;2022-12-20T05:54:26;69.75;48.50;32.00
67714;PMS7003;54505;44.022;20.458;2022-12-20T05:56:52;73.75;50.25;30.50
67714;PMS7003;54505;44.022;20.458;2022-12-20T05:59:17;52.75;43.00;27.25
67714;PMS7003;54505;44.022;20.458;2022-12-20T06:01:43;37.75;29.75;12.00
67714;PMS7003;54505;44.022;20.458;2022-12-20T06:04:09;58.25;48.75;33.00
67714;PMS7003;54505;44.022;20.458;2022-12-20T06:06:34;64.75;43.00;28.00
67714;PMS7003;54505;44.022;20.458;2022-12-20T06:09:00;53.00;37.50;25.00
67714;PMS7003;54505;44.022;20.458;2022-12-20T06:11:26;70.25;56.00;36.00
67714;PMS7003;54505;44.022;20.458;2022-12-20T06:13:51;91.75;60.00;38.50
67714;PMS7003;54505;44.022;20.458;2022-12-20T06:16:17;74.50;55.25;34.00
67714;PMS7003;54505;44.022;20.458;2022-12-20T06:18:45;71.50;54.25;33.75
67714;PMS7003;54505;44.022;20.458;2022-12-20T06:21:10;71.25;54.00;34.50
67714;PMS7003;54505;44.022;20.458;2022-12-20T06:23:36;66.75;51.25;33.00
67714;PMS7003;54505;44.022;20.458;2022-12-20T06:26:02;57.25;45.75;28.50
67714;PMS7003;54505;44.022;20.458;2022-12-20T06:28:29;53.00;44.00;29.50
67714;PMS7003;54505;44.022;20.458;2022-12-20T06:30:55;61.00;47.00;30.00
67714;PMS7003;54505;44.022;20.458;2022-12-20T06:33:21;60.00;48.25;32.00
67714;PMS7003;54505;44.022;20.458;2022-12-20T06:35:50;68.00;46.00;30.50
67714;PMS7003;54505;44.022;20.458;2022-12-20T06:38:16;69.25;48.75;32.50
67714;PMS7003;54505;44.022;20.458;2022-12-20T06:40:42;54.25;46.25;27.00
67714;PMS7003;54505;44.022;20.458;2022-12-20T06:43:08;66.75;49.75;32.50
67714;PMS7003;54505;44.022;20.458;2022-12-20T06:45:34;52.50;44.75;31.75
67714;PMS7003;54505;44.022;20.458;2022-12-20T06:47:59;49.00;43.25;29.50
67714;PMS7003;54505;44.022;20.458;2022-12-20T06:50:25;50.00;40.25;28.50
67714;PMS7003;54505;44.022;20.458;2022-12-20T06:52:52;49.50;42.50;27.75
67714;PMS7003;54505;44.022;20.458;2022-12-20T06:55:18;45.25;38.75;24.75
67714;PMS7003;54505;44.022;20.458;2022-12-20T06:57:43;60.75;49.00;30.00
67714;PMS7003;54505;44.022;20.458;2022-12-20T07:00:10;59.75;43.00;23.50
67714;PMS7003;54505;44.022;20.458;2022-12-20T07:02:37;65.50;48.00;29.00
67714;PMS7003;54505;44.022;20.458;2022-12-20T07:05:03;53.75;45.00;30.00
67714;PMS7003;54505;44.022;20.458;2022-12-20T07:07:29;58.75;45.75;29.50
67714;PMS7003;54505;44.022;20.458;2022-12-20T07:09:55;50.25;44.50;27.75
67714;PMS7003;54505;44.022;20.458;2022-12-20T07:12:21;42.50;35.00;28.00
67714;PMS7003;54505;44.022;20.458;2022-12-20T07:14:47;45.50;35.75;23.25
67714;PMS7003;54505;44.022;20.458;2022-12-20T07:17:13;51.75;45.25;30.00
67714;PMS7003;54505;44.022;20.458;2022-12-20T07:19:40;56.25;45.00;31.50
67714;PMS7003;54505;44.022;20.458;2022-12-20T07:22:06;56.25;45.25;27.50
67714;PMS7003;54505;44.022;20.458;2022-12-20T07:24:32;53.25;41.00;26.00
67714;PMS7003;54505;44.022;20.458;2022-12-20T07:26:58;67.25;49.75;33.00
67714;PMS7003;54505;44.022;20.458;2022-12-20T07:29:24;67.25;49.00;33.00
67714;PMS7003;54505;44.022;20.458;2022-12-20T07:31:50;61.75;47.75;31.00
67714;PMS7003;54505;44.022;20.458;2022-12-20T07:34:16;67.00;50.00;32.50
67714;PMS7003;54505;44.022;20.458;2022-12-20T07:36:41;64.25;48.50;30.25
67714;PMS7003;54505;44.022;20.458;2022-12-20T07:39:07;69.75;51.00;33.75
67714;PMS7003;54505;44.022;20.458;2022-12-20T07:41:33;65.00;48.50;29.75
67714;PMS7003;54505;44.022;20.458;2022-12-20T07:43:59;63.50;49.75;31.00
67714;PMS7003;54505;44.022;20.458;2022-12-20T07:46:25;64.00;47.50;28.75
67714;PMS7003;54505;44.022;20.458;2022-12-20T07:48:51;71.25;49.00;32.25
67714;PMS7003;54505;44.022;20.458;2022-12-20T07:51:18;74.00;54.25;34.00
67714;PMS7003;54505;44.022;20.458;2022-12-20T07:53:47;66.50;47.50;32.00
67714;PMS7003;54505;44.022;20.458;2022-12-20T07:56:14;61.50;48.75;32.50
67714;PMS7003;54505;44.022;20.458;2022-12-20T07:58:40;62.25;49.25;31.25
67714;PMS7003;54505;44.022;20.458;2022-12-20T08:01:07;66.25;49.50;32.75
67714;PMS7003;54505;44.022;20.458;2022-12-20T08:03:35;65.75;50.50;30.75
67714;PMS7003;54505;44.022;20.458;2022-12-20T08:06:02;67.50;51.25;33.00
67714;PMS7003;54505;44.022;20.458;2022-12-20T08:08:31;75.25;57.25;36.00
67714;PMS7003;54505;44.022;20.458;2022-12-20T08:10:57;69.25;53.50;34.50
67714;PMS7003;54505;44.022;20.458;2022-12-20T08:13:23;56.75;42.00;20.50
67714;PMS7003;54505;44.022;20.458;2022-12-20T08:15:49;63.25;51.25;34.00
67714;PMS7003;54505;44.022;20.458;2022-12-20T08:18:15;71.00;53.00;31.75
67714;PMS7003;54505;44.022;20.458;2022-12-20T08:20:41;64.50;48.50;34.50
67714;PMS7003;54505;44.022;20.458;2022-12-20T08:23:06;57.00;49.00;30.50
67714;PMS7003;54505;44.022;20.458;2022-12-20T08:25:35;75.25;53.00;33.00
67714;PMS7003;54505;44.022;20.458;2022-12-20T08:28:01;62.25;49.00;31.00
67714;PMS7003;54505;44.022;20.458;2022-12-20T08:30:28;63.75;47.75;32.25
67714;PMS7003;54505;44.022;20.458;2022-12-20T08:32:54;62.00;48.75;31.00
67714;PMS7003;54505;44.022;20.458;2022-12-20T08:35:21;66.25;47.00;31.00
67714;PMS7003;54505;44.022;20.458;2022-12-20T08:37:49;66.75;49.00;30.75
67714;PMS7003;54505;44.022;20.458;2022-12-20T08:40:15;51.75;41.00;27.25
67714;PMS7003;54505;44.022;20.458;2022-12-20T08:42:41;56.50;45.75;29.25
67714;PMS7003;54505;44.022;20.458;2022-12-20T08:45:06;54.75;42.50;29.00
67714;PMS7003;54505;44.022;20.458;2022-12-20T08:47:33;62.00;47.50;30.00
67714;PMS7003;54505;44.022;20.458;2022-12-20T08:49:58;67.50;53.00;31.00
67714;PMS7003;54505;44.022;20.458;2022-12-20T08:52:27;64.50;48.00;31.00
67714;PMS7003;54505;44.022;20.458;2022-12-20T08:54:52;63.75;50.50;31.00
67714;PMS7003;54505;44.022;20.458;2022-12-20T08:57:18;57.50;44.75;31.25
67714;PMS7003;54505;44.022;20.458;2022-12-20T08:59:44;67.75;54.00;35.50
67714;PMS7003;54505;44.022;20.458;2022-12-20T09:02:10;59.25;45.75;29.00
67714;PMS7003;54505;44.022;20.458;2022-12-20T09:04:35;59.00;48.25;33.25
67714;PMS7003;54505;44.022;20.458;2022-12-20T09:07:01;56.50;47.25;30.50
67714;PMS7003;54505;44.022;20.458;2022-12-20T09:09:27;74.00;51.25;34.00
67714;PMS7003;54505;44.022;20.458;2022-12-20T09:11:53;66.75;50.25;32.25
67714;PMS7003;54505;44.022;20.458;2022-12-20T09:14:19;64.50;49.00;31.50
67714;PMS7003;54505;44.022;20.458;2022-12-20T09:16:44;69.25;55.75;34.00
67714;PMS7003;54505;44.022;20.458;2022-12-20T09:19:10;70.50;57.00;32.25
67714;PMS7003;54505;44.022;20.458;2022-12-20T09:21:36;69.50;54.75;34.25
67714;PMS7003;54505;44.022;20.458;2022-12-20T09:24:02;67.50;51.25;31.75
67714;PMS7003;54505;44.022;20.458;2022-12-20T09:26:28;70.50;50.00;31.25
67714;PMS7003;54505;44.022;20.458;2022-12-20T09:28:55;72.00;53.00;36.00
67714;PMS7003;54505;44.022;20.458;2022-12-20T09:31:22;61.75;48.00;30.50
67714;PMS7003;54505;44.022;20.458;2022-12-20T09:33:48;62.75;53.50;32.25
67714;PMS7003;54505;44.022;20.458;2022-12-20T09:36:15;65.25;47.00;30.00
67714;PMS7003;54505;44.022;20.458;2022-12-20T09:38:41;72.50;56.50;34.75
67714;PMS7003;54505;44.022;20.458;2022-12-20T09:41:14;60.25;44.25;26.00
67714;PMS7003;54505;44.022;20.458;2022-12-20T09:43:40;66.00;52.00;32.25
67714;PMS7003;54505;44.022;20.458;2022-12-20T09:46:09;72.25;53.75;34.75
67714;PMS7003;54505;44.022;20.458;2022-12-20T09:48:37;74.00;51.25;33.25
67714;PMS7003;54505;44.022;20.458;2022-12-20T10:01:28;65.50;51.50;32.50
67714;PMS7003;54505;44.022;20.458;2022-12-20T10:03:55;65.75;51.75;31.00
67714;PMS7003;54505;44.022;20.458;2022-12-20T10:06:31;62.00;48.25;30.75
67714;PMS7003;54505;44.022;20.458;2022-12-20T10:09:00;67.75;51.50;34.25
67714;PMS7003;54505;44.022;20.458;2022-12-20T10:14:07;65.00;49.25;31.25
67714;PMS7003;54505;44.022;20.458;2022-12-20T10:16:44;54.75;42.50;27.00
67714;PMS7003;54505;44.022;20.458;2022-12-20T10:24:14;56.00;41.25;25.25
67714;PMS7003;54505;44.022;20.458;2022-12-20T10:26:41;60.25;48.75;28.25
67714;PMS7003;54505;44.022;20.458;2022-12-20T10:29:14;63.25;47.00;30.00
67714;PMS7003;54505;44.022;20.458;2022-12-20T10:31:41;58.75;42.75;29.00
67714;PMS7003;54505;44.022;20.458;2022-12-20T10:34:07;59.75;48.00;28.75
67714;PMS7003;54505;44.022;20.458;2022-12-20T10:36:34;69.00;50.00;28.75
67714;PMS7003;54505;44.022;20.458;2022-12-20T10:39:01;58.25;45.00;27.75
67714;PMS7003;54505;44.022;20.458;2022-12-20T10:41:31;65.25;51.25;31.00
67714;PMS7003;54505;44.022;20.458;2022-12-20T10:44:05;64.75;51.25;33.00
67714;PMS7003;54505;44.022;20.458;2022-12-20T10:46:47;66.50;51.50;33.00
67714;PMS7003;54505;44.022;20.458;2022-12-20T10:51:53;61.00;44.75;29.00
67714;PMS7003;54505;44.022;20.458;2022-12-20T10:54:21;56.50;46.25;28.50
67714;PMS7003;54505;44.022;20.458;2022-12-20T10:56:54;65.25;50.50;31.25
67714;PMS7003;54505;44.022;20.458;2022-12-20T11:01:46;53.25;39.75;15.25
67714;PMS7003;54505;44.022;20.458;2022-12-20T11:06:50;61.00;47.25;29.50
67714;PMS7003;54505;44.022;20.458;2022-12-20T11:11:55;59.25;48.25;29.50
67714;PMS7003;54505;44.022;20.458;2022-12-20T11:14:21;69.75;54.00;34.50
67714;PMS7003;54505;44.022;20.458;2022-12-20T11:16:48;406.00;326.50;167.00
67714;PMS7003;54505;44.022;20.458;2022-12-20T11:21:52;59.75;47.50;30.00
67714;PMS7003;54505;44.022;20.458;2022-12-20T11:37:32;53.00;41.25;26.50
67714;PMS7003;54505;44.022;20.458;2022-12-20T11:42:31;60.00;44.00;29.00
67714;PMS7003;54505;44.022;20.458;2022-12-20T11:45:09;61.25;49.00;30.25
67714;PMS7003;54505;44.022;20.458;2022-12-20T12:00:15;62.00;44.50;28.25
67714;PMS7003;54505;44.022;20.458;2022-12-20T12:02:43;67.75;50.50;30.25
67714;PMS7003;54505;44.022;20.458;2022-12-20T12:05:22;61.50;47.50;29.00
67714;PMS7003;54505;44.022;20.458;2022-12-20T12:07:51;66.50;51.25;34.50
67714;PMS7003;54505;44.022;20.458;2022-12-20T12:10:23;59.50;45.50;28.00
67714;PMS7003;54505;44.022;20.458;2022-12-20T12:13:06;64.00;48.50;30.75
67714;PMS7003;54505;44.022;20.458;2022-12-20T12:15:41;56.50;44.75;28.00
67714;PMS7003;54505;44.022;20.458;2022-12-20T12:18:13;62.25;48.50;30.50
67714;PMS7003;54505;44.022;20.458;2022-12-20T12:20:47;60.50;45.00;28.75
67714;PMS7003;54505;44.022;20.458;2022-12-20T12:23:24;60.50;45.25;27.25
67714;PMS7003;54505;44.022;20.458;2022-12-20T12:25:51;58.75;46.00;27.50
67714;PMS7003;54505;44.022;20.458;2022-12-20T12:28:19;52.25;43.50;27.00
67714;PMS7003;54505;44.022;20.458;2022-12-20T12:30:46;61.75;47.75;31.50
67714;PMS7003;54505;44.022;20.458;2022-12-20T12:33:15;57.25;46.75;28.75
67714;PMS7003;54505;44.022;20.458;2022-12-20T12:38:52;60.50;48.25;28.25
67714;PMS7003;54505;44.022;20.458;2022-12-20T12:43:53;75.50;55.00;34.50
67714;PMS7003;54505;44.022;20.458;2022-12-20T12:46:27;71.75;51.75;33.00
67714;PMS7003;54505;44.022;20.458;2022-12-20T12:51:25;79.25;59.75;36.75
67714;PMS7003;54505;44.022;20.458;2022-12-20T12:53:53;68.00;50.50;31.25
67714;PMS7003;54505;44.022;20.458;2022-12-20T12:59:08;71.25;56.25;35.00
67714;PMS7003;54505;44.022;20.458;2022-12-20T13:04:23;68.00;53.75;33.75
67714;PMS7003;54505;44.022;20.458;2022-12-20T13:11:40;77.25;55.25;36.25
67714;PMS7003;54505;44.022;20.458;2022-12-20T13:16:41;70.75;51.75;33.75
67714;PMS7003;54505;44.022;20.458;2022-12-20T13:19:28;81.75;61.25;36.00
67714;PMS7003;54505;44.022;20.458;2022-12-20T13:21:57;78.50;57.00;35.25
67714;PMS7003;54505;44.022;20.458;2022-12-20T13:27:15;73.75;54.25;34.50
67714;PMS7003;54505;44.022;20.458;2022-12-20T13:29:53;74.50;57.00;35.00
67714;PMS7003;54505;44.022;20.458;2022-12-20T13:40:28;77.00;58.25;37.00
67714;PMS7003;54505;44.022;20.458;2022-12-20T13:42:55;63.75;50.50;30.25
67714;PMS7003;54505;44.022;20.458;2022-12-20T13:45:23;70.50;57.50;36.25
67714;PMS7003;54505;44.022;20.458;2022-12-20T13:47:54;68.25;52.25;33.75
67714;PMS7003;54505;44.022;20.458;2022-12-20T13:50:24;84.75;60.25;38.00
67714;PMS7003;54505;44.022;20.458;2022-12-20T13:52:50;83.25;61.50;37.00
67714;PMS7003;54505;44.022;20.458;2022-12-20T13:55:24;77.50;58.25;36.25
67714;PMS7003;54505;44.022;20.458;2022-12-20T13:57:50;80.00;61.75;37.50
67714;PMS7003;54505;44.022;20.458;2022-12-20T14:00:23;85.25;60.50;38.75
67714;PMS7003;54505;44.022;20.458;2022-12-20T14:02:49;87.50;65.00;41.25
67714;PMS7003;54505;44.022;20.458;2022-12-20T14:05:24;79.50;61.75;37.25
67714;PMS7003;54505;44.022;20.458;2022-12-20T14:08:01;75.50;59.00;36.50
67714;PMS7003;54505;44.022;20.458;2022-12-20T14:10:29;79.50;59.25;38.50
67714;PMS7003;54505;44.022;20.458;2022-12-20T14:12:56;73.00;57.50;36.75
67714;PMS7003;54505;44.022;20.458;2022-12-20T14:15:23;91.00;68.50;42.25
67714;PMS7003;54505;44.022;20.458;2022-12-20T14:17:49;85.25;65.00;39.75
67714;PMS7003;54505;44.022;20.458;2022-12-20T14:20:27;82.00;65.25;40.50
67714;PMS7003;54505;44.022;20.458;2022-12-20T14:22:55;92.25;67.25;43.75
67714;PMS7003;54505;44.022;20.458;2022-12-20T14:25:55;86.75;64.25;40.00
67714;PMS7003;54505;44.022;20.458;2022-12-20T14:31:00;84.75;66.50;40.25
67714;PMS7003;54505;44.022;20.458;2022-12-20T14:33:35;96.25;70.50;45.25
67714;PMS7003;54505;44.022;20.458;2022-12-20T14:36:07;109.75;86.75;47.50
67714;PMS7003;54505;44.022;20.458;2022-12-20T14:38:32;92.25;69.25;43.50
67714;PMS7003;54505;44.022;20.458;2022-12-20T14:40:58;93.75;69.50;42.25
67714;PMS7003;54505;44.022;20.458;2022-12-20T14:43:26;89.25;67.25;41.75
67714;PMS7003;54505;44.022;20.458;2022-12-20T14:46:14;88.75;63.00;40.00
67714;PMS7003;54505;44.022;20.458;2022-12-20T14:48:41;91.50;68.25;40.50
67714;PMS7003;54505;44.022;20.458;2022-12-20T14:51:07;91.75;68.00;41.25
67714;PMS7003;54505;44.022;20.458;2022-12-20T14:53:32;85.50;63.75;40.00
67714;PMS7003;54505;44.022;20.458;2022-12-20T14:55:58;82.00;62.75;38.50
67714;PMS7003;54505;44.022;20.458;2022-12-20T15:00:54;88.75;67.25;40.50
67714;PMS7003;54505;44.022;20.458;2022-12-20T15:03:20;82.00;63.00;38.25
67714;PMS7003;54505;44.022;20.458;2022-12-20T15:05:50;89.50;67.25;42.25
67714;PMS7003;54505;44.022;20.458;2022-12-20T15:15:54;95.75;70.50;44.00
67714;PMS7003;54505;44.022;20.458;2022-12-20T15:18:19;107.50;79.25;47.50
67714;PMS7003;54505;44.022;20.458;2022-12-20T15:21:24;124.75;105.75;60.75
67714;PMS7003;54505;44.022;20.458;2022-12-20T15:23:41;116.50;103.25;60.25
67714;PMS7003;54505;44.022;20.458;2022-12-20T15:26:09;106.50;81.50;48.50
67714;PMS7003;54505;44.022;20.458;2022-12-20T15:28:38;112.75;90.75;54.75
67714;PMS7003;54505;44.022;20.458;2022-12-20T15:31:04;110.00;91.75;56.00
67714;PMS7003;54505;44.022;20.458;2022-12-20T15:33:30;105.00;83.50;49.75
67714;PMS7003;54505;44.022;20.458;2022-12-20T15:35:56;106.25;87.75;50.25
67714;PMS7003;54505;44.022;20.458;2022-12-20T15:38:23;106.75;80.50;49.25